createdAt,value
2022-11-16T00:00:51.062Z,27.29
2022-11-16T00:01:51.118Z,27.45
2022-11-16T00:02:51.035Z,27.55
2022-11-16T00:03:51.037Z,27.88
2022-11-16T00:04:51.007Z,27.50
2022-11-16T00:05:50.996Z,28.20
2022-11-16T00:06:51.023Z,27.55
2022-11-16T00:07:50.966Z,27.55
2022-11-16T00:08:50.969Z,27.39
2022-11-16T00:09:50.946Z,27.88
2022-11-16T00:10:50.926Z,27.71
2022-11-16T00:11:50.906Z,27.61
2022-11-16T00:12:50.887Z,27.61
2022-11-16T00:13:50.897Z,27.93
2022-11-16T00:14:50.865Z,27.88
2022-11-16T00:15:50.859Z,27.61
2022-11-16T00:16:50.837Z,27.61
2022-11-16T00:17:50.827Z,27.55
2022-11-16T00:18:50.819Z,28.31
2022-11-16T00:19:50.798Z,27.88
2022-11-16T00:20:50.781Z,27.88
2022-11-16T00:21:50.780Z,28.25
2022-11-16T00:22:50.763Z,27.82
2022-11-16T00:23:50.759Z,27.88
2022-11-16T00:24:50.729Z,27.61
2022-11-16T00:25:50.719Z,27.88
2022-11-16T00:26:50.712Z,28.20
2022-11-16T00:27:50.690Z,27.98
2022-11-16T00:28:50.689Z,27.88
2022-11-16T00:29:50.670Z,28.25
2022-11-16T00:30:50.648Z,27.77
2022-11-16T00:31:50.640Z,28.25
2022-11-16T00:32:50.619Z,27.66
2022-11-16T00:33:50.628Z,27.82
2022-11-16T00:34:50.589Z,27.98
2022-11-16T00:35:50.582Z,28.20
2022-11-16T00:36:50.561Z,28.31
2022-11-16T00:37:50.558Z,27.88
2022-11-16T00:38:50.550Z,27.88
2022-11-16T00:39:50.528Z,27.98
2022-11-16T00:40:50.512Z,28.25
2022-11-16T00:41:50.501Z,28.25
2022-11-16T00:42:50.484Z,27.98
2022-11-16T00:43:50.491Z,28.04
2022-11-16T00:44:50.454Z,28.31
2022-11-16T00:45:50.441Z,27.66
2022-11-16T00:46:50.433Z,27.98
2022-11-16T00:47:50.418Z,28.41
2022-11-16T00:48:50.416Z,28.25
2022-11-16T00:49:50.391Z,28.31
2022-11-16T00:50:50.374Z,28.04
2022-11-16T00:51:50.362Z,27.93
2022-11-16T00:52:50.342Z,27.98
2022-11-16T00:53:50.353Z,28.20
2022-11-16T00:54:50.313Z,27.82
2022-11-16T00:55:50.303Z,28.04
2022-11-16T00:56:50.298Z,27.98
2022-11-16T00:57:50.282Z,28.04
2022-11-16T00:58:50.274Z,28.84
2022-11-16T00:59:50.253Z,28.63
2022-11-16T01:00:50.289Z,28.04
2022-11-16T01:01:50.271Z,28.79
2022-11-16T01:02:50.211Z,28.57
2022-11-16T01:03:50.225Z,28.63
2022-11-16T01:04:50.182Z,29.00
2022-11-16T01:05:50.171Z,28.95
2022-11-16T01:06:50.217Z,29.38
2022-11-16T01:07:50.155Z,29.49
2022-11-16T01:08:50.144Z,29.38
2022-11-16T01:09:50.115Z,29.65
2022-11-16T01:10:50.096Z,29.65
2022-11-16T01:11:50.089Z,29.65
2022-11-16T01:12:50.067Z,29.97
2022-11-16T01:13:50.075Z,30.24
2022-11-16T01:14:50.035Z,32.12
2022-11-16T01:15:50.035Z,32.07
2022-11-16T01:16:50.015Z,32.98
2022-11-16T01:17:49.996Z,33.09
2022-11-16T01:18:49.997Z,33.35
2022-11-16T01:19:49.995Z,33.14
2022-11-16T01:20:49.959Z,33.35
2022-11-16T01:21:49.947Z,34.48
2022-11-16T01:22:49.938Z,33.30
2022-11-16T01:23:49.941Z,34.54
2022-11-16T01:24:49.903Z,34.27
2022-11-16T01:25:49.897Z,34.21
2022-11-16T01:26:49.878Z,34.48
2022-11-16T01:27:49.868Z,34.48
2022-11-16T01:28:49.868Z,35.61
2022-11-16T01:29:49.838Z,35.40
2022-11-16T01:30:49.819Z,35.72
2022-11-16T01:31:49.818Z,35.45
2022-11-16T01:32:49.797Z,35.66
2022-11-16T01:33:49.805Z,35.72
2022-11-16T01:34:49.768Z,36.42
2022-11-16T01:35:49.761Z,36.36
2022-11-16T01:36:49.740Z,35.50
2022-11-16T01:37:49.729Z,36.42
2022-11-16T01:38:49.750Z,35.61
2022-11-16T01:39:49.729Z,36.63
2022-11-16T01:40:49.707Z,36.42
2022-11-16T01:41:49.679Z,36.63
2022-11-16T01:42:49.656Z,36.42
2022-11-16T01:43:49.660Z,36.63
2022-11-16T01:44:49.629Z,36.63
2022-11-16T01:45:49.620Z,36.36
2022-11-16T01:46:49.609Z,36.47
2022-11-16T01:47:49.672Z,36.63
2022-11-16T01:48:49.657Z,36.42
2022-11-16T01:49:49.571Z,35.40
2022-11-16T01:50:49.557Z,36.63
2022-11-16T01:51:49.540Z,36.47
2022-11-16T01:52:49.521Z,36.68
2022-11-16T01:53:49.521Z,36.68
2022-11-16T01:54:49.490Z,36.42
2022-11-16T01:55:49.479Z,36.68
2022-11-16T01:56:49.460Z,36.31
2022-11-16T01:57:49.463Z,36.85
2022-11-16T01:58:49.453Z,35.66
2022-11-16T01:59:49.429Z,36.42
2022-11-16T02:00:49.496Z,36.42
2022-11-16T02:01:49.404Z,35.66
2022-11-16T02:02:49.381Z,36.42
2022-11-16T02:03:49.394Z,36.63
2022-11-16T02:04:49.354Z,36.63
2022-11-16T02:05:49.343Z,35.61
2022-11-16T02:06:49.396Z,35.66
2022-11-16T02:07:49.314Z,35.61
2022-11-16T02:08:49.313Z,35.66
2022-11-16T02:09:49.291Z,35.61
2022-11-16T02:10:49.270Z,35.45
2022-11-16T02:11:49.262Z,35.45
2022-11-16T02:12:49.260Z,35.61
2022-11-16T02:13:51.433Z,35.72
2022-11-16T02:14:49.216Z,35.61
2022-11-16T02:15:49.213Z,35.40
2022-11-16T02:16:49.193Z,34.21
2022-11-16T02:17:49.174Z,34.48
2022-11-16T02:18:49.180Z,34.59
2022-11-16T02:19:49.164Z,35.45
2022-11-16T02:20:49.134Z,34.27
2022-11-16T02:21:49.123Z,35.50
2022-11-16T02:22:49.105Z,35.40
2022-11-16T02:23:49.118Z,34.32
2022-11-16T02:24:49.077Z,34.59
2022-11-16T02:25:49.066Z,34.21
2022-11-16T02:26:49.049Z,34.16
2022-11-16T02:27:49.041Z,34.48
2022-11-16T02:28:49.035Z,34.27
2022-11-16T02:29:49.015Z,33.35
2022-11-16T02:30:48.992Z,34.54
2022-11-16T02:31:48.987Z,34.27
2022-11-16T02:32:48.975Z,33.09
2022-11-16T02:33:48.976Z,34.54
2022-11-16T02:34:48.937Z,33.25
2022-11-16T02:35:48.934Z,33.09
2022-11-16T02:36:48.907Z,33.35
2022-11-16T02:37:48.895Z,33.35
2022-11-16T02:38:48.895Z,33.30
2022-11-16T02:39:48.879Z,33.30
2022-11-16T02:40:48.856Z,34.38
2022-11-16T02:41:48.846Z,33.09
2022-11-16T02:42:48.843Z,33.03
2022-11-16T02:43:48.836Z,33.14
2022-11-16T02:44:48.797Z,33.30
2022-11-16T02:45:48.796Z,32.07
2022-11-16T02:46:48.766Z,33.03
2022-11-16T02:47:48.765Z,33.09
2022-11-16T02:48:48.767Z,32.07
2022-11-16T02:49:48.727Z,33.30
2022-11-16T02:50:48.718Z,32.33
2022-11-16T02:51:48.707Z,32.33
2022-11-16T02:52:48.703Z,32.33
2022-11-16T02:53:48.708Z,32.28
2022-11-16T02:54:48.657Z,32.12
2022-11-16T02:55:48.656Z,32.33
2022-11-16T02:56:48.629Z,31.90
2022-11-16T02:57:48.619Z,32.33
2022-11-16T02:58:48.628Z,32.33
2022-11-16T02:59:48.596Z,32.07
2022-11-16T03:00:48.620Z,32.39
2022-11-16T03:01:48.568Z,32.33
2022-11-16T03:02:48.549Z,32.39
2022-11-16T03:03:48.943Z,32.07
2022-11-16T03:04:48.520Z,32.17
2022-11-16T03:05:48.519Z,32.07
2022-11-16T03:06:48.535Z,32.17
2022-11-16T03:07:48.488Z,30.94
2022-11-16T03:08:48.481Z,30.94
2022-11-16T03:09:48.454Z,31.21
2022-11-16T03:10:48.441Z,31.21
2022-11-16T03:11:48.429Z,30.99
2022-11-16T03:12:48.410Z,30.19
2022-11-16T03:13:48.418Z,31.15
2022-11-16T03:14:48.381Z,31.21
2022-11-16T03:15:48.369Z,31.04
2022-11-16T03:16:48.360Z,31.21
2022-11-16T03:17:48.349Z,29.92
2022-11-16T03:18:48.343Z,30.94
2022-11-16T03:19:48.320Z,29.92
2022-11-16T03:20:48.304Z,30.24
2022-11-16T03:21:48.290Z,30.24
2022-11-16T03:22:48.302Z,30.94
2022-11-16T03:23:48.282Z,30.08
2022-11-16T03:24:48.252Z,30.24
2022-11-16T03:25:48.232Z,29.97
2022-11-16T03:26:48.222Z,29.92
2022-11-16T03:27:48.204Z,30.13
2022-11-16T03:28:48.222Z,30.02
2022-11-16T03:29:48.181Z,30.19
2022-11-16T03:30:48.176Z,30.19
2022-11-16T03:31:48.152Z,30.24
2022-11-16T03:32:48.142Z,29.70
2022-11-16T03:33:48.142Z,30.24
2022-11-16T03:34:48.114Z,29.59
2022-11-16T03:35:48.093Z,30.13
2022-11-16T03:36:48.093Z,29.65
2022-11-16T03:37:48.064Z,29.38
2022-11-16T03:38:48.098Z,29.33
2022-11-16T03:39:48.046Z,29.65
2022-11-16T03:40:48.034Z,29.49
2022-11-16T03:41:48.015Z,29.49
2022-11-16T03:42:48.005Z,29.59
2022-11-16T03:43:48.004Z,29.65
2022-11-16T03:44:47.975Z,29.65
2022-11-16T03:45:47.955Z,29.65
2022-11-16T03:46:47.958Z,29.49
2022-11-16T03:47:47.925Z,29.65
2022-11-16T03:48:47.936Z,29.33
2022-11-16T03:49:47.904Z,29.59
2022-11-16T03:50:47.895Z,29.33
2022-11-16T03:51:47.884Z,29.54
2022-11-16T03:52:47.864Z,29.38
2022-11-16T03:53:47.865Z,29.70
2022-11-16T03:54:47.845Z,29.27
2022-11-16T03:55:49.956Z,29.00
2022-11-16T03:56:47.806Z,28.95
2022-11-16T03:57:47.812Z,29.65
2022-11-16T03:58:47.796Z,29.22
2022-11-16T03:59:47.767Z,29.65
2022-11-16T04:00:47.833Z,29.00
2022-11-16T04:01:47.737Z,29.27
2022-11-16T04:02:47.729Z,29.22
2022-11-16T04:03:47.727Z,29.22
2022-11-16T04:04:47.707Z,29.27
2022-11-16T04:05:47.678Z,29.00
2022-11-16T04:06:47.701Z,29.11
2022-11-16T04:07:47.674Z,28.74
2022-11-16T04:08:47.656Z,28.90
2022-11-16T04:09:47.629Z,28.90
2022-11-16T04:10:47.618Z,28.63
2022-11-16T04:11:47.598Z,29.00
2022-11-16T04:12:47.610Z,28.57
2022-11-16T04:13:47.568Z,28.84
2022-11-16T04:14:47.568Z,28.57
2022-11-16T04:15:47.555Z,28.90
2022-11-16T04:16:47.536Z,28.63
2022-11-16T04:17:47.537Z,28.57
2022-11-16T04:18:47.511Z,28.57
2022-11-16T04:19:47.491Z,28.90
2022-11-16T04:20:47.480Z,27.98
2022-11-16T04:21:47.461Z,28.63
2022-11-16T04:22:47.557Z,28.90
2022-11-16T04:23:47.432Z,27.93
2022-11-16T04:24:47.430Z,27.66
2022-11-16T04:25:47.408Z,28.52
2022-11-16T04:26:47.402Z,28.14
2022-11-16T04:27:47.404Z,27.98
2022-11-16T04:28:47.371Z,27.98
2022-11-16T04:29:47.351Z,27.98
2022-11-16T04:30:47.351Z,28.25
2022-11-16T04:31:47.343Z,27.98
2022-11-16T04:32:47.332Z,28.20
2022-11-16T04:33:47.292Z,27.98
2022-11-16T04:34:47.291Z,28.31
2022-11-16T04:35:47.281Z,28.31
2022-11-16T04:36:47.255Z,28.31
2022-11-16T04:37:47.264Z,27.66
2022-11-16T04:38:47.233Z,28.04
2022-11-16T04:39:47.212Z,27.88
2022-11-16T04:40:47.213Z,28.31
2022-11-16T04:41:47.183Z,27.98
2022-11-16T04:42:47.193Z,27.88
2022-11-16T04:43:47.160Z,27.61
2022-11-16T04:44:47.153Z,27.88
2022-11-16T04:45:47.133Z,27.71
2022-11-16T04:46:47.124Z,27.66
2022-11-16T04:47:47.128Z,27.88
2022-11-16T04:48:47.114Z,27.82
2022-11-16T04:49:47.076Z,27.61
2022-11-16T04:50:47.066Z,27.61
2022-11-16T04:51:47.054Z,27.88
2022-11-16T04:52:47.056Z,27.18
2022-11-16T04:53:47.026Z,27.61
2022-11-16T04:54:47.005Z,27.50
2022-11-16T04:55:46.987Z,27.23
2022-11-16T04:56:46.994Z,27.61
2022-11-16T04:57:46.986Z,27.66
2022-11-16T04:58:46.956Z,27.93
2022-11-16T04:59:46.943Z,27.29
2022-11-16T05:00:46.926Z,27.50
2022-11-16T05:01:46.943Z,27.88
2022-11-16T05:02:46.926Z,27.50
2022-11-16T05:03:46.877Z,27.45
2022-11-16T05:04:46.876Z,27.50
2022-11-16T05:05:46.847Z,27.23
2022-11-16T05:06:47.015Z,27.66
2022-11-16T05:07:46.845Z,27.18
2022-11-16T05:08:46.819Z,27.34
2022-11-16T05:09:46.807Z,27.50
2022-11-16T05:10:46.797Z,27.34
2022-11-16T05:11:46.767Z,27.45
2022-11-16T05:12:46.817Z,27.50
2022-11-16T05:13:46.748Z,26.96
2022-11-16T05:14:46.736Z,26.91
2022-11-16T05:15:46.726Z,27.50
2022-11-16T05:16:46.710Z,26.91
2022-11-16T05:17:46.689Z,27.02
2022-11-16T05:18:46.703Z,27.55
2022-11-16T05:19:46.670Z,26.75
2022-11-16T05:20:46.650Z,26.91
2022-11-16T05:21:46.639Z,26.69
2022-11-16T05:22:46.627Z,27.50
2022-11-16T05:23:46.621Z,26.64
2022-11-16T05:24:46.589Z,26.80
2022-11-16T05:25:46.580Z,27.18
2022-11-16T05:26:46.569Z,26.91
2022-11-16T05:27:46.553Z,26.59
2022-11-16T05:28:46.561Z,26.64
2022-11-16T05:29:46.539Z,27.45
2022-11-16T05:30:46.512Z,26.91
2022-11-16T05:31:46.507Z,26.59
2022-11-16T05:32:46.490Z,26.80
2022-11-16T05:33:46.480Z,26.64
2022-11-16T05:34:46.461Z,26.86
2022-11-16T05:35:46.440Z,26.96
2022-11-16T05:36:46.433Z,26.96
2022-11-16T05:37:46.414Z,26.75
2022-11-16T05:38:46.454Z,26.53
2022-11-16T05:39:46.383Z,26.26
2022-11-16T05:40:46.387Z,26.26
2022-11-16T05:41:46.359Z,26.91
2022-11-16T05:42:46.352Z,26.64
2022-11-16T05:43:46.354Z,26.96
2022-11-16T05:44:46.324Z,26.53
2022-11-16T05:45:46.305Z,26.43
2022-11-16T05:46:46.312Z,26.43
2022-11-16T05:47:46.275Z,26.59
2022-11-16T05:48:46.281Z,26.53
2022-11-16T05:49:46.243Z,26.26
2022-11-16T05:50:46.234Z,26.32
2022-11-16T05:51:46.224Z,26.26
2022-11-16T05:52:46.213Z,26.32
2022-11-16T05:53:46.232Z,26.53
2022-11-16T05:54:46.186Z,26.26
2022-11-16T05:55:46.246Z,26.26
2022-11-16T05:56:46.156Z,26.32
2022-11-16T05:57:46.154Z,26.48
2022-11-16T05:58:46.164Z,26.48
2022-11-16T05:59:46.116Z,26.37
2022-11-16T06:00:46.116Z,26.26
2022-11-16T06:01:46.086Z,26.26
2022-11-16T06:02:46.161Z,26.32
2022-11-16T06:03:46.075Z,26.53
2022-11-16T06:04:46.056Z,26.26
2022-11-16T06:05:46.040Z,26.48
2022-11-16T06:06:46.026Z,26.53
2022-11-16T06:07:46.017Z,26.05
2022-11-16T06:08:46.036Z,26.10
2022-11-16T06:09:45.986Z,26.48
2022-11-16T06:10:45.966Z,25.83
2022-11-16T06:11:45.959Z,25.83
2022-11-16T06:12:45.948Z,26.26
2022-11-16T06:13:45.976Z,26.16
2022-11-16T06:14:45.926Z,26.16
2022-11-16T06:16:06.919Z,25.83
2022-11-16T06:16:45.889Z,26.16
2022-11-16T06:17:45.881Z,26.26
2022-11-16T06:18:45.887Z,26.53
2022-11-16T06:19:45.847Z,26.10
2022-11-16T06:20:45.837Z,26.32
2022-11-16T06:21:45.827Z,25.78
2022-11-16T06:22:45.809Z,26.10
2022-11-16T06:23:45.811Z,26.00
2022-11-16T06:24:45.770Z,26.16
2022-11-16T06:25:45.770Z,26.10
2022-11-16T06:26:45.749Z,25.89
2022-11-16T06:27:45.748Z,26.10
2022-11-16T06:28:45.750Z,25.94
2022-11-16T06:29:45.709Z,26.10
2022-11-16T06:30:45.699Z,26.16
2022-11-16T06:31:45.744Z,26.10
2022-11-16T06:32:45.670Z,26.16
2022-11-16T06:33:45.689Z,26.00
2022-11-16T06:34:45.640Z,25.89
2022-11-16T06:35:45.632Z,25.89
2022-11-16T06:36:45.623Z,25.24
2022-11-16T06:37:45.610Z,26.10
2022-11-16T06:38:45.620Z,25.51
2022-11-16T06:39:45.580Z,25.30
2022-11-16T06:40:45.560Z,26.16
2022-11-16T06:41:45.552Z,26.16
2022-11-16T06:42:45.542Z,25.30
2022-11-16T06:43:45.544Z,25.83
2022-11-16T06:44:45.511Z,26.16
2022-11-16T06:45:45.499Z,25.57
2022-11-16T06:46:45.489Z,26.16
2022-11-16T06:47:45.474Z,25.35
2022-11-16T06:48:45.471Z,26.16
2022-11-16T06:49:45.441Z,25.30
2022-11-16T06:50:45.421Z,25.35
2022-11-16T06:51:45.411Z,25.78
2022-11-16T06:52:45.406Z,26.00
2022-11-16T06:53:45.403Z,25.46
2022-11-16T06:54:45.372Z,25.46
2022-11-16T06:55:45.362Z,25.57
2022-11-16T06:56:45.343Z,25.35
2022-11-16T06:57:45.345Z,25.51
2022-11-16T06:58:45.337Z,25.57
2022-11-16T06:59:45.312Z,25.24
2022-11-16T07:00:45.300Z,25.30
2022-11-16T07:01:45.319Z,25.35
2022-11-16T07:02:45.284Z,25.41
2022-11-16T07:03:45.283Z,25.57
2022-11-16T07:04:45.234Z,25.57
2022-11-16T07:05:45.233Z,25.57
2022-11-16T07:06:45.221Z,25.24
2022-11-16T07:07:45.203Z,25.35
2022-11-16T07:08:45.201Z,25.51
2022-11-16T07:09:45.177Z,25.51
2022-11-16T07:10:45.153Z,25.30
2022-11-16T07:11:45.144Z,25.41
2022-11-16T07:12:45.156Z,25.30
2022-11-16T07:13:45.134Z,25.24
2022-11-16T07:14:45.105Z,25.57
2022-11-16T07:15:45.095Z,25.41
2022-11-16T07:16:45.088Z,25.46
2022-11-16T07:17:45.072Z,25.30
2022-11-16T07:18:45.074Z,25.57
2022-11-16T07:19:45.034Z,25.41
2022-11-16T07:20:45.027Z,25.57
2022-11-16T07:21:45.007Z,25.30
2022-11-16T07:22:45.009Z,25.30
2022-11-16T07:23:44.996Z,25.57
2022-11-16T07:24:44.976Z,25.57
2022-11-16T07:25:44.956Z,24.92
2022-11-16T07:26:44.953Z,25.24
2022-11-16T07:27:44.936Z,24.81
2022-11-16T07:28:48.079Z,24.87
2022-11-16T07:29:44.904Z,25.24
2022-11-16T07:30:44.894Z,24.87
2022-11-16T07:31:44.912Z,24.92
2022-11-16T07:32:44.874Z,24.92
2022-11-16T07:33:44.880Z,25.46
2022-11-16T07:34:44.844Z,25.30
2022-11-16T07:35:44.827Z,25.51
2022-11-16T07:36:44.815Z,25.57
2022-11-16T07:37:44.814Z,24.92
2022-11-16T07:38:44.812Z,24.87
2022-11-16T07:39:44.774Z,25.14
2022-11-16T07:40:44.769Z,25.08
2022-11-16T07:41:44.761Z,24.92
2022-11-16T07:42:44.738Z,24.98
2022-11-16T07:43:49.953Z,25.57
2022-11-16T07:44:45.717Z,24.98
2022-11-16T07:45:44.691Z,25.14
2022-11-16T07:46:47.083Z,25.51
2022-11-16T07:47:44.658Z,25.14
2022-11-16T07:48:44.659Z,24.87
2022-11-16T07:49:44.656Z,24.92
2022-11-16T07:50:44.628Z,25.19
2022-11-16T07:51:44.605Z,25.14
2022-11-16T07:52:44.598Z,24.87
2022-11-16T07:53:44.581Z,24.92
2022-11-16T07:54:44.597Z,24.98
2022-11-16T07:55:44.557Z,25.19
2022-11-16T07:56:44.540Z,25.14
2022-11-16T07:57:47.914Z,24.98
2022-11-16T07:58:45.517Z,24.87
2022-11-16T07:59:44.510Z,25.08
2022-11-16T08:00:44.491Z,24.76
2022-11-16T08:01:44.529Z,25.14
2022-11-16T08:02:44.463Z,25.14
2022-11-16T08:03:44.441Z,24.60
2022-11-16T08:04:44.453Z,24.92
2022-11-16T08:05:44.411Z,24.81
2022-11-16T08:06:44.410Z,24.76
2022-11-16T08:07:44.390Z,24.76
2022-11-16T08:08:44.382Z,24.76
2022-11-16T08:09:44.420Z,25.19
2022-11-16T08:10:44.350Z,24.92
2022-11-16T08:11:44.331Z,24.55
2022-11-16T08:12:44.322Z,24.92
2022-11-16T08:13:44.312Z,24.71
2022-11-16T08:14:44.312Z,24.98
2022-11-16T08:15:44.283Z,24.98
2022-11-16T08:16:44.272Z,24.87
2022-11-16T08:17:44.253Z,24.44
2022-11-16T08:18:44.261Z,25.14
2022-11-16T08:19:44.222Z,24.92
2022-11-16T08:20:44.212Z,25.14
2022-11-16T08:21:44.197Z,24.92
2022-11-16T08:22:44.192Z,24.76
2022-11-16T08:23:44.192Z,24.92
2022-11-16T08:24:44.162Z,24.49
2022-11-16T08:25:44.148Z,24.76
2022-11-16T08:26:44.138Z,25.08
2022-11-16T08:27:44.123Z,24.87
2022-11-16T08:28:44.127Z,24.87
2022-11-16T08:29:44.111Z,25.14
2022-11-16T08:30:45.587Z,24.76
2022-11-16T08:31:44.063Z,24.60
2022-11-16T08:32:44.053Z,24.55
2022-11-16T08:33:44.055Z,24.76
2022-11-16T08:34:44.089Z,24.87
2022-11-16T08:35:44.013Z,24.76
2022-11-16T08:36:44.002Z,24.55
2022-11-16T08:37:43.984Z,24.49
2022-11-16T08:38:43.993Z,24.76
2022-11-16T08:39:43.965Z,24.92
2022-11-16T08:40:43.944Z,24.76
2022-11-16T08:41:43.935Z,25.19
2022-11-16T08:42:44.186Z,24.65
2022-11-16T08:43:43.918Z,24.65
2022-11-16T08:44:43.895Z,25.03
2022-11-16T08:45:43.876Z,24.65
2022-11-16T08:46:43.874Z,25.14
2022-11-16T08:47:43.846Z,24.76
2022-11-16T08:48:43.848Z,24.76
2022-11-16T08:49:49.246Z,24.60
2022-11-16T08:51:10.491Z,24.76
2022-11-16T08:51:44.787Z,24.76
2022-11-16T08:52:43.785Z,24.71
2022-11-16T08:54:53.590Z,23.96
2022-11-16T08:55:53.567Z,24.76
2022-11-16T08:56:53.551Z,24.49
2022-11-16T08:57:53.547Z,24.49
2022-11-16T08:58:58.107Z,24.60
2022-11-16T08:59:54.511Z,24.49
2022-11-16T09:00:53.493Z,24.76
2022-11-16T09:01:53.511Z,24.76
2022-11-16T09:02:53.472Z,24.55
2022-11-16T09:03:53.479Z,24.76
2022-11-16T09:04:53.433Z,24.49
2022-11-16T09:05:53.432Z,23.58
2022-11-16T09:06:53.492Z,24.17
2022-11-16T09:07:53.403Z,24.65
2022-11-16T09:08:53.403Z,24.76
2022-11-16T09:09:53.374Z,24.17
2022-11-16T09:10:53.354Z,23.85
2022-11-16T09:11:53.352Z,24.22
2022-11-16T09:12:53.333Z,24.22
2022-11-16T09:13:53.342Z,24.01
2022-11-16T09:14:53.303Z,24.60
2022-11-16T09:15:53.294Z,24.76
2022-11-16T09:16:53.276Z,23.90
2022-11-16T09:17:53.265Z,24.76
2022-11-16T09:18:53.265Z,24.81
2022-11-16T09:19:53.255Z,24.01
2022-11-16T09:20:53.226Z,24.76
2022-11-16T09:21:53.216Z,24.12
2022-11-16T09:22:53.195Z,23.85
2022-11-16T09:23:53.205Z,23.90
2022-11-16T09:24:53.176Z,24.17
2022-11-16T09:25:53.155Z,24.65
2022-11-16T09:26:53.143Z,23.74
2022-11-16T09:27:53.137Z,24.55
2022-11-16T09:28:53.126Z,24.49
2022-11-16T09:29:53.107Z,24.55
2022-11-16T09:30:53.087Z,24.44
2022-11-16T09:31:53.077Z,24.22
2022-11-16T09:32:53.067Z,23.90
2022-11-16T09:33:53.064Z,23.90
2022-11-16T09:34:53.036Z,24.22
2022-11-16T09:35:53.016Z,23.96
2022-11-16T09:36:53.007Z,23.90
2022-11-16T09:37:52.989Z,24.76
2022-11-16T09:39:53.965Z,23.96
2022-11-16T09:40:52.955Z,23.85
2022-11-16T09:41:52.937Z,24.76
2022-11-16T09:42:52.927Z,24.17
2022-11-16T09:43:52.928Z,23.90
2022-11-16T09:44:52.905Z,23.90
2022-11-16T09:45:53.039Z,24.01
2022-11-16T09:46:52.878Z,23.96
2022-11-16T09:47:52.853Z,23.90
2022-11-16T09:48:52.858Z,24.17
2022-11-16T09:49:54.111Z,23.90
2022-11-16T09:50:52.818Z,24.22
2022-11-16T09:51:52.799Z,24.22
2022-11-16T09:52:52.790Z,23.85
2022-11-16T09:53:52.789Z,24.17
2022-11-16T09:54:52.771Z,24.12
2022-11-16T09:55:52.755Z,23.53
2022-11-16T09:56:52.742Z,24.06
2022-11-16T09:57:52.716Z,24.17
2022-11-16T09:58:52.746Z,23.85
2022-11-16T09:59:52.701Z,23.90
2022-11-16T10:00:52.723Z,23.96
2022-11-16T10:01:52.661Z,24.17
2022-11-16T10:02:52.651Z,24.12
2022-11-16T10:03:52.638Z,23.90
2022-11-16T10:04:57.907Z,24.17
2022-11-16T10:05:53.611Z,24.12
2022-11-16T10:06:52.648Z,23.90
2022-11-16T10:07:52.583Z,24.17
2022-11-16T10:08:52.581Z,24.17
2022-11-16T10:09:52.572Z,23.90
2022-11-16T10:10:52.550Z,23.96
2022-11-16T10:11:52.521Z,24.06
2022-11-16T10:12:52.523Z,23.74
2022-11-16T10:13:52.512Z,24.17
2022-11-16T10:14:52.512Z,23.90
2022-11-16T10:15:52.473Z,23.69
2022-11-16T10:16:52.474Z,23.53
2022-11-16T10:17:52.444Z,24.17
2022-11-16T10:18:52.443Z,23.85
2022-11-16T10:19:52.435Z,23.90
2022-11-16T10:20:52.412Z,23.53
2022-11-16T10:21:52.396Z,23.53
2022-11-16T10:22:52.384Z,23.53
2022-11-16T10:23:52.375Z,24.17
2022-11-16T10:24:52.374Z,23.58
2022-11-16T10:25:52.335Z,23.47
2022-11-16T10:26:52.335Z,23.79
2022-11-16T10:27:52.311Z,23.90
2022-11-16T10:28:52.304Z,23.85
2022-11-16T10:29:52.314Z,23.74
2022-11-16T10:30:52.282Z,23.90
2022-11-16T10:31:52.265Z,23.96
2022-11-16T10:32:52.246Z,23.53
2022-11-16T10:33:52.226Z,23.90
2022-11-16T10:34:52.260Z,23.79
2022-11-16T10:35:52.204Z,23.53
2022-11-16T10:36:52.198Z,23.90
2022-11-16T10:37:52.180Z,23.79
2022-11-16T10:38:52.177Z,23.79
2022-11-16T10:39:52.167Z,23.53
2022-11-16T10:40:52.138Z,23.53
2022-11-16T10:41:52.132Z,23.63
2022-11-16T10:42:52.115Z,23.53
2022-11-16T10:43:52.097Z,23.85
2022-11-16T10:44:52.097Z,23.79
2022-11-16T10:45:52.066Z,23.58
2022-11-16T10:46:52.060Z,23.47
2022-11-16T10:47:52.046Z,23.53
2022-11-16T10:48:52.034Z,23.63
2022-11-16T10:49:52.029Z,23.74
2022-11-16T10:50:52.008Z,23.79
2022-11-16T10:51:51.987Z,23.58
2022-11-16T10:52:51.980Z,24.22
2022-11-16T10:53:51.959Z,23.79
2022-11-16T10:54:51.966Z,23.69
2022-11-16T10:55:51.929Z,23.74
2022-11-16T10:56:51.921Z,24.12
2022-11-16T10:57:51.900Z,23.90
2022-11-16T10:58:51.918Z,23.79
2022-11-16T10:59:51.891Z,23.74
2022-11-16T11:00:52.092Z,24.17
2022-11-16T11:01:51.849Z,23.69
2022-11-16T11:02:51.840Z,23.53
2022-11-16T11:03:51.822Z,23.58
2022-11-16T11:04:51.835Z,23.58
2022-11-16T11:05:51.803Z,23.63
2022-11-16T11:06:51.858Z,23.85
2022-11-16T11:07:56.754Z,23.69
2022-11-16T11:08:52.761Z,23.69
2022-11-16T11:09:51.755Z,23.31
2022-11-16T11:10:51.733Z,23.63
2022-11-16T11:11:51.714Z,23.69
2022-11-16T11:12:51.703Z,23.15
2022-11-16T11:13:51.684Z,23.58
2022-11-16T11:14:51.694Z,23.63
2022-11-16T11:15:51.703Z,23.53
2022-11-16T11:16:51.647Z,23.58
2022-11-16T11:17:51.635Z,23.74
2022-11-16T11:18:51.628Z,23.15
2022-11-16T11:19:51.626Z,23.58
2022-11-16T11:20:51.594Z,23.74
2022-11-16T11:21:51.586Z,23.79
2022-11-16T11:22:51.570Z,23.79
2022-11-16T11:23:51.557Z,23.53
2022-11-16T11:24:51.561Z,23.74
2022-11-16T11:25:51.542Z,23.47
2022-11-16T11:26:51.516Z,23.53
2022-11-16T11:27:51.496Z,23.42
2022-11-16T11:28:51.512Z,23.74
2022-11-16T11:29:51.477Z,23.85
2022-11-16T11:30:51.459Z,23.58
2022-11-16T11:31:51.440Z,23.42
2022-11-16T11:32:51.429Z,23.47
2022-11-16T11:33:51.439Z,23.42
2022-11-16T11:34:51.407Z,23.42
2022-11-16T11:35:51.390Z,23.69
2022-11-16T11:36:51.400Z,23.15
2022-11-16T11:37:51.360Z,23.63
2022-11-16T11:38:51.396Z,23.53
2022-11-16T11:39:51.338Z,23.31
2022-11-16T11:40:51.322Z,23.85
2022-11-16T11:41:51.311Z,23.42
2022-11-16T11:42:51.301Z,23.15
2022-11-16T11:43:51.292Z,23.69
2022-11-16T11:44:51.289Z,23.15
2022-11-16T11:45:51.282Z,23.26
2022-11-16T11:48:00.013Z,23.26
2022-11-16T11:48:52.232Z,23.26
2022-11-16T11:49:51.202Z,23.36
2022-11-16T11:50:51.191Z,23.42
2022-11-16T11:51:51.172Z,23.42
2022-11-16T11:52:51.162Z,23.10
2022-11-16T11:53:51.163Z,23.69
2022-11-16T11:54:51.153Z,23.36
2022-11-16T11:55:51.114Z,23.20
2022-11-16T11:56:51.111Z,23.10
2022-11-16T11:57:51.086Z,23.36
2022-11-16T11:58:51.094Z,23.58
2022-11-16T11:59:51.064Z,23.42
2022-11-16T12:00:51.068Z,23.20
2022-11-16T12:01:51.034Z,23.10
2022-11-16T12:02:51.053Z,23.20
2022-11-16T12:03:51.028Z,23.42
2022-11-16T12:04:51.003Z,23.26
2022-11-16T12:05:50.987Z,23.20
2022-11-16T12:06:51.031Z,23.20
2022-11-16T12:07:50.954Z,22.72
2022-11-16T12:08:50.955Z,23.15
2022-11-16T12:09:50.926Z,23.42
2022-11-16T12:10:50.918Z,23.36
2022-11-16T12:11:50.897Z,23.42
2022-11-16T12:12:50.887Z,23.10
2022-11-16T12:13:50.890Z,22.77
2022-11-16T12:14:50.867Z,22.56
2022-11-16T12:15:50.849Z,22.56
2022-11-16T12:16:50.839Z,23.15
2022-11-16T12:17:50.820Z,23.15
2022-11-16T12:18:50.828Z,23.15
2022-11-16T12:19:50.791Z,23.42
2022-11-16T12:20:50.780Z,22.83
2022-11-16T12:21:50.769Z,23.47
2022-11-16T12:22:50.749Z,22.83
2022-11-16T12:23:50.753Z,22.61
2022-11-16T12:24:50.751Z,23.15
2022-11-16T12:25:50.730Z,23.31
2022-11-16T12:26:50.701Z,22.56
2022-11-16T12:27:50.681Z,23.15
2022-11-16T12:28:51.323Z,22.29
2022-11-16T12:29:50.650Z,22.56
2022-11-16T12:30:50.652Z,22.83
2022-11-16T12:31:50.632Z,23.42
2022-11-16T12:32:50.621Z,23.26
2022-11-16T12:33:50.620Z,23.36
2022-11-16T12:34:50.590Z,22.83
2022-11-16T12:35:50.581Z,22.56
2022-11-16T12:36:50.562Z,22.77
2022-11-16T12:37:50.543Z,22.72
2022-11-16T12:38:50.562Z,22.77
2022-11-16T12:39:50.515Z,22.83
2022-11-16T12:40:50.512Z,23.20
2022-11-16T12:41:50.493Z,22.83
2022-11-16T12:42:50.484Z,22.61
2022-11-16T12:43:50.490Z,22.50
2022-11-16T12:44:50.484Z,22.56
2022-11-16T12:45:50.433Z,22.83
2022-11-16T12:46:50.424Z,23.20
2022-11-16T12:47:50.411Z,22.50
2022-11-16T12:48:50.427Z,22.50
2022-11-16T12:49:50.383Z,22.77
2022-11-16T12:50:50.384Z,22.83
2022-11-16T12:51:50.384Z,22.77
2022-11-16T12:52:50.346Z,22.56
2022-11-16T12:53:50.356Z,23.20
2022-11-16T12:55:19.006Z,22.77
2022-11-16T12:55:51.296Z,22.77